Wetterstation Rossbuehl

Zugriff auf die letzten 10 Werte 30 Werte 100 Werte 400 Werte

Datum_____UhrzeitWind
Mittel
Wind
min
Wind
Boe
Wind
BoeTag
Wind
Richtung
Temp1
Feuchte Station Power
type
BatterieInter
vall
SMS
JJJJ-MM-TT hh:mmkm/hmin SpitzePeak Grad °C % ID Ex.oBat Volt min St.
2021-04-13 17:53 5 0 15 28 2.2 17 2 5.80 1
2021-04-13 17:38 3 1 7 48 1.1 23 2 5.81 1
2021-04-13 17:23 6 4 7 91 0.9 15 2 5.80 1
2021-04-13 17:08 5 5 6 58 1.2 17 2 5.80 1
2021-04-13 16:38 3 2 7 59 2.8 10 2 5.80 1
2021-04-13 16:23 2 1 4 20 3 12 2 5.80 1
2021-04-13 16:08 3 1 7 326 1.7 10 2 5.80 1
2021-04-13 15:53 5 2 7 297 2.4 12 2 5.80 1
2021-04-13 15:38 4 3 7 238 4.1 23 2 5.80 1
2021-04-13 15:23 2 2 3 287 1.4 27 2 5.81 1
2021-04-13 15:08 0 0 0 16 2.2 19 2 5.82 1
2021-04-13 14:53 6 4 7 300 1.5 21 2 5.81 1
2021-04-13 14:38 3 2 4 260 0.6 44 2 5.83 1
2021-04-13 14:23 2 2 3 288 0.7 48 2 5.82 1
2021-04-13 14:08 2 1 3 285 1.1 64 2 5.80 1
2021-04-13 13:53 1 0 4 309 3 50 2 5.82 1
2021-04-13 13:38 1 2 0 323 0.2 60 2 5.80 1
2021-04-13 13:23 1 0 4 310 -0.8 77 2 5.81 1
2021-04-13 13:08 3 1 8 76 1.1 77 2 5.81 1
2021-04-13 12:53 3 0 5 211 1.4 19 2 5.81 1